Time;durP1;ratioP1;P1;durP2;ratioP2;P2;SDS_P1;SDS_P2;PMS_P1;PMS_P2;Temp;Humidity;BMP_temperature;BMP_pressure;BME280_temperature;BME280_humidity;BME280_pressure;Samples;Min_cycle;Max_cycle;Signal;HPM_P1;HPM_P2
2023/04/11 00:01:21;;;;;;;;;8.00;2.25;;;;;10.67;76.86;100914.22;5120332;27;45388;-65
2023/04/11 00:03:46;;;;;;;;;1.75;1.00;;;;;10.61;77.00;100909.94;5118118;27;45469;-66
2023/04/11 00:06:11;;;;;;;;;6.00;3.00;;;;;10.61;77.21;100919.63;5120030;27;46271;-66
2023/04/11 00:08:37;;;;;;;;;2.50;2.00;;;;;10.54;77.25;100903.09;5119776;27;45313;-66
2023/04/11 00:11:02;;;;;;;;;5.25;2.00;;;;;10.53;77.57;100904.00;5120003;27;45444;-66
2023/04/11 00:13:27;;;;;;;;;2.50;2.00;;;;;10.44;77.51;100894.50;5120286;27;45408;-66
2023/04/11 00:15:54;;;;;;;;;7.75;2.00;;;;;10.48;77.67;100915.50;5119677;27;46557;-65
2023/04/11 00:18:20;;;;;;;;;1.00;1.00;;;;;10.43;77.59;100908.56;5119960;27;45303;-65
2023/04/11 00:20:46;;;;;;;;;2.75;1.25;;;;;10.48;77.51;100926.03;5119828;27;45443;-66
2023/04/11 00:23:11;;;;;;;;;3.25;2.00;;;;;10.33;77.47;100901.72;5119799;27;45353;-65
2023/04/11 00:25:37;;;;;;;;;4.00;2.75;;;;;10.41;77.57;100920.91;5119582;27;46400;-66
2023/04/11 00:28:03;;;;;;;;;8.00;2.00;;;;;10.40;78.03;100928.81;5119410;27;45828;-66
2023/04/11 00:30:28;;;;;;;;;4.75;1.75;;;;;10.40;77.81;100926.19;5119660;27;45448;-66
2023/04/11 00:32:53;;;;;;;;;2.00;2.00;;;;;10.33;78.00;100901.72;5119937;27;45455;-66
2023/04/11 00:35:19;;;;;;;;;12.25;2.25;;;;;10.26;78.05;100895.69;5119342;27;46256;-66
2023/04/11 00:37:45;;;;;;;;;5.25;3.50;;;;;10.35;77.93;100912.25;5119342;27;45253;-66
2023/04/11 00:40:13;;;;;;;;;9.25;1.75;;;;;10.17;77.92;100895.00;5119248;27;45404;-66
2023/04/11 00:42:39;;;;;;;;;3.00;1.50;;;;;10.25;78.33;100920.28;5119633;27;45463;-65
2023/04/11 00:45:05;;;;;;;;;5.50;2.00;;;;;10.03;78.21;100882.97;5119111;27;47490;-65
2023/04/11 00:47:31;;;;;;;;;3.25;2.25;;;;;10.27;78.52;100920.25;5119203;27;45238;-65
2023/04/11 00:49:57;;;;;;;;;4.00;2.75;;;;;10.19;78.03;100916.88;5119451;27;45397;-65
2023/04/11 00:52:23;;;;;;;;;6.75;2.50;;;;;10.20;78.40;100927.38;5119498;27;45277;-65
2023/04/11 00:54:48;;;;;;;;;3.00;1.50;;;;;10.16;78.20;100917.81;5119339;27;45689;-65
2023/04/11 00:57:14;;;;;;;;;7.25;2.00;;;;;10.20;78.32;100916.00;5119213;27;45449;-65
2023/04/11 00:59:41;;;;;;;;;4.00;1.00;;;;;10.19;78.07;100914.25;5119048;27;45462;-66
2023/04/11 01:02:07;;;;;;;;;2.25;2.00;;;;;10.19;78.20;100916.88;5119491;27;45468;-65
2023/04/11 01:04:32;;;;;;;;;5.50;2.75;;;;;10.15;78.20;100920.47;5118355;27;45289;-65
2023/04/11 01:07:02;;;;;;;;;5.50;2.00;;;;;10.18;78.11;100930.94;5118893;27;45492;-65
2023/04/11 01:09:28;;;;;;;;;5.25;2.25;;;;;10.17;78.40;100918.69;5119011;27;45287;-65
2023/04/11 01:11:55;;;;;;;;;1.00;0.75;;;;;10.09;78.32;100924.97;5119393;27;45247;-65
2023/04/11 01:14:22;;;;;;;;;2.25;2.00;;;;;10.14;78.11;100937.16;5118840;27;46622;-65
2023/04/11 01:16:49;;;;;;;;;15.75;4.00;;;;;10.07;78.78;100945.16;5118517;27;45307;-65
2023/04/11 01:19:18;;;;;;;;;4.25;1.75;;;;;10.03;78.33;100927.69;5118887;27;45407;-65
2023/04/11 01:21:45;;;;;;;;;4.00;0.75;;;;;9.99;78.31;100910.25;5119117;27;45423;-65
2023/04/11 01:24:10;;;;;;;;;1.00;1.00;;;;;10.04;78.83;100939.09;5118666;27;46184;-65
2023/04/11 01:26:36;;;;;;;;;10.75;2.00;;;;;9.96;79.00;100928.69;5118616;27;45354;-65
2023/04/11 01:29:02;;;;;;;;;9.00;2.75;;;;;10.03;78.53;100937.34;5118823;27;45310;-65
2023/04/11 01:31:27;;;;;;;;;7.50;1.75;;;;;10.00;78.74;100940.88;5118809;27;45895;-65
2023/04/11 01:33:52;;;;;;;;;6.75;2.00;;;;;9.97;78.84;100945.34;5117949;27;45374;-65
2023/04/11 01:36:18;;;;;;;;;3.75;2.50;;;;;10.01;79.18;100965.47;5118500;27;45456;-65
2023/04/11 01:38:43;;;;;;;;;3.75;1.00;;;;;9.97;78.90;100959.34;5118724;27;45430;-65
2023/04/11 01:41:09;;;;;;;;;4.00;3.75;;;;;9.88;79.00;100949.00;5118556;27;45527;-65
2023/04/11 01:43:35;;;;;;;;;10.00;1.00;;;;;9.86;79.33;100948.16;5118235;27;46315;-65
2023/04/11 01:46:00;;;;;;;;;6.50;1.75;;;;;9.95;78.97;100969.06;5118515;27;45508;-65
2023/04/11 01:48:26;;;;;;;;;3.50;1.00;;;;;9.94;78.80;100973.44;5118426;27;45446;-65
2023/04/11 01:50:54;;;;;;;;;4.25;2.50;;;;;9.89;79.25;100977.03;5118769;27;45354;-65
2023/04/11 01:53:19;;;;;;;;;5.75;2.25;;;;;9.90;78.97;100970.88;5118191;27;45978;-65
2023/04/11 01:55:45;;;;;;;;;3.75;1.50;;;;;9.84;79.07;100968.34;5118376;27;45271;-66
2023/04/11 01:58:10;;;;;;;;;3.75;2.75;;;;;9.88;79.41;100976.16;5118489;27;45431;-65
2023/04/11 02:00:35;;;;;;;;;3.75;2.00;;;;;9.85;79.47;100970.97;5118473;27;45441;-65
2023/04/11 02:03:01;;;;;;;;;2.00;0.75;;;;;9.83;79.06;100967.50;5118161;27;46338;-66
2023/04/11 02:05:28;;;;;;;;;2.00;2.00;;;;;9.85;79.34;100983.25;5118240;27;45487;-65
2023/04/11 02:07:53;;;;;;;;;6.25;1.00;;;;;9.80;79.67;100982.44;5118133;27;45378;-65
2023/04/11 02:10:18;;;;;;;;;2.25;1.75;;;;;9.74;79.38;100972.88;5118294;27;45386;-65
2023/04/11 02:12:44;;;;;;;;;7.00;2.00;;;;;9.77;79.30;100975.47;5118101;27;45366;-65
2023/04/11 02:15:09;;;;;;;;;4.75;2.00;;;;;9.70;79.24;100969.44;5118443;27;45391;-66
2023/04/11 02:17:35;;;;;;;;;5.75;2.25;;;;;9.73;79.11;100973.75;5121780;27;45346;-65
2023/04/11 02:20:01;;;;;;;;;3.50;0.00;;;;;9.70;79.29;100972.06;5121937;27;45445;-65
2023/04/11 02:22:26;;;;;;;;;4.25;1.00;;;;;9.72;78.87;100970.28;5121399;27;47324;-65
2023/04/11 02:24:52;;;;;;;;;2.00;1.50;;;;;9.73;79.05;100976.41;5121599;27;45245;-65
2023/04/11 02:27:17;;;;;;;;;5.25;2.00;;;;;9.71;78.69;100975.56;5121718;27;45259;-65
2023/04/11 02:29:43;;;;;;;;;4.25;0.75;;;;;9.71;78.74;100980.81;5121860;27;45288;-65
2023/04/11 02:32:08;;;;;;;;;2.00;1.00;;;;;9.70;78.81;100987.84;5121278;27;45375;-65
2023/04/11 02:34:33;;;;;;;;;3.00;1.00;;;;;9.66;78.66;100985.31;5121501;27;45288;-65
2023/04/11 02:36:59;;;;;;;;;3.25;1.00;;;;;9.71;78.46;100983.44;5121561;27;45335;-65
2023/04/11 02:39:25;;;;;;;;;6.50;1.00;;;;;9.66;78.54;100975.66;5121759;27;45325;-65
2023/04/11 02:41:50;;;;;;;;;4.75;1.00;;;;;9.66;78.60;100987.94;5121045;27;46213;-65
2023/04/11 02:44:17;;;;;;;;;5.25;1.00;;;;;9.61;78.56;100973.97;5121085;27;45390;-65
2023/04/11 02:46:42;;;;;;;;;2.75;1.00;;;;;9.65;78.52;100991.44;5121072;27;45488;-65
2023/04/11 02:49:07;;;;;;;;;4.00;1.75;;;;;9.56;78.66;100981.94;5121529;27;45325;-65
2023/04/11 02:51:33;;;;;;;;;6.50;1.00;;;;;9.52;78.74;100981.09;5121283;27;47304;-65
2023/04/11 02:53:58;;;;;;;;;3.00;1.00;;;;;9.60;78.87;100999.41;5120791;27;45396;-65
2023/04/11 02:56:23;;;;;;;;;3.25;3.00;;;;;9.62;78.69;101004.63;5121121;27;45385;-65
2023/04/11 02:58:51;;;;;;;;;1.50;0.25;;;;;9.64;78.57;101003.69;5121474;27;45302;-65
2023/04/11 03:01:17;;;;;;;;;7.00;2.25;;;;;9.62;78.77;101007.25;5120765;27;46068;-65
2023/04/11 03:03:43;;;;;;;;;2.00;1.25;;;;;9.54;78.88;100996.84;5121267;27;45464;-66
2023/04/11 03:06:09;;;;;;;;;7.50;1.00;;;;;9.62;78.65;101015.16;5121003;27;45191;-65
2023/04/11 03:08:36;;;;;;;;;1.75;1.75;;;;;9.61;78.98;101016.88;5121021;27;45751;-66
2023/04/11 03:11:02;;;;;;;;;5.75;2.00;;;;;9.60;78.77;101023.06;5120626;27;45629;-65
2023/04/11 03:13:27;;;;;;;;;6.75;1.00;;;;;9.57;79.08;101033.63;5120819;27;45378;-65
2023/04/11 03:15:53;;;;;;;;;3.50;1.75;;;;;9.56;78.79;101022.22;5119442;27;45723;-65
2023/04/11 03:18:21;;;;;;;;;5.00;2.00;;;;;9.50;78.63;101016.19;5121086;27;45369;-65
2023/04/11 03:20:46;;;;;;;;;4.00;1.00;;;;;9.52;79.10;101027.56;5108405;27;45533;-65
2023/04/11 03:23:12;;;;;;;;;3.25;1.00;;;;;9.52;78.89;101027.56;5100208;27;45313;-65
2023/04/11 03:25:37;;;;;;;;;3.75;1.00;;;;;9.49;78.75;101031.09;5100132;27;45503;-65
2023/04/11 03:28:03;;;;;;;;;7.00;1.75;;;;;9.49;78.83;101040.75;5099960;27;45275;-65
2023/04/11 03:30:29;;;;;;;;;6.75;1.00;;;;;9.43;78.62;101025.91;5099688;27;47164;-66
2023/04/11 03:32:54;;;;;;;;;9.00;2.00;;;;;9.44;78.76;101032.91;5099955;27;45488;-66
2023/04/11 03:35:20;;;;;;;;;3.00;1.75;;;;;9.41;78.83;101044.34;5100197;27;45276;-66
2023/04/11 03:37:46;;;;;;;;;4.00;2.00;;;;;9.42;78.75;101042.56;5100123;27;45540;-65
2023/04/11 03:40:12;;;;;;;;;6.25;3.75;;;;;9.37;78.76;101028.63;5099698;27;46628;-65
2023/04/11 03:42:37;;;;;;;;;5.50;3.00;;;;;9.44;78.70;101045.16;5099749;27;45449;-66
2023/04/11 03:45:03;;;;;;;;;5.25;2.50;;;;;9.40;78.39;101039.97;5099839;27;45326;-66
2023/04/11 03:47:29;;;;;;;;;6.25;2.00;;;;;9.40;78.54;101047.84;5119458;27;45450;-66
2023/04/11 03:49:55;;;;;;;;;3.75;1.00;;;;;9.38;78.41;101039.13;5101843;27;46402;-65
2023/04/11 03:52:20;;;;;;;;;3.50;1.00;;;;;9.38;78.98;101043.50;5099585;27;45382;-65
2023/04/11 03:54:45;;;;;;;;;4.75;1.00;;;;;9.37;78.37;101040.00;5099750;27;45219;-66
2023/04/11 03:57:11;;;;;;;;;1.50;0.75;;;;;9.15;78.39;101010.50;5099888;27;45264;-66
2023/04/11 03:59:36;;;;;;;;;2.00;0.75;;;;;9.35;78.09;101047.06;5117372;27;46093;-66
2023/04/11 04:02:01;;;;;;;;;4.75;1.00;;;;;9.29;78.17;101043.63;5101674;27;45441;-65
2023/04/11 04:04:27;;;;;;;;;2.00;2.00;;;;;9.32;78.34;101048.84;5099717;27;45704;-65
2023/04/11 04:06:55;;;;;;;;;1.00;1.00;;;;;9.04;78.29;101004.53;5099602;27;45630;-66
2023/04/11 04:09:22;;;;;;;;;3.25;0.50;;;;;9.27;78.07;101051.53;5098005;27;45810;-65
2023/04/11 04:11:47;;;;;;;;;1.00;1.00;;;;;9.26;78.45;101059.44;5106379;27;45508;-66
2023/04/11 04:14:13;;;;;;;;;5.25;1.75;;;;;9.21;78.23;101052.47;5119789;27;45415;-66
2023/04/11 04:16:38;;;;;;;;;5.00;2.00;;;;;9.25;78.05;101063.81;5120040;27;45397;-66
2023/04/11 04:19:04;;;;;;;;;3.50;1.00;;;;;9.27;78.40;101075.19;5119758;27;45682;-66
2023/04/11 04:21:31;;;;;;;;;4.00;2.00;;;;;9.27;78.17;101074.31;5116273;27;45592;-66
2023/04/11 04:24:02;;;;;;;;;3.25;1.25;;;;;9.27;77.97;101077.81;5119498;27;45282;-65
2023/04/11 04:26:28;;;;;;;;;3.25;1.00;;;;;9.18;78.27;101067.41;5119947;27;45624;-66
2023/04/11 04:28:56;;;;;;;;;3.25;1.75;;;;;9.10;77.96;101053.50;5119212;27;45466;-66
2023/04/11 04:31:24;;;;;;;;;3.00;1.25;;;;;9.22;78.37;101076.97;5119360;27;45622;-66
2023/04/11 04:33:50;;;;;;;;;3.00;0.50;;;;;9.21;78.10;101078.75;5119580;27;45316;-66
2023/04/11 04:36:16;;;;;;;;;6.00;1.75;;;;;9.20;78.27;101074.38;5119818;27;45290;-66
2023/04/11 04:38:43;;;;;;;;;2.00;0.75;;;;;9.19;77.99;101082.25;5118359;27;46565;-67
2023/04/11 04:41:13;;;;;;;;;6.75;1.75;;;;;9.10;78.28;101074.50;5115017;27;45379;-67
2023/04/11 04:43:40;;;;;;;;;3.50;1.75;;;;;9.09;78.15;101067.50;5098905;27;45353;-67
2023/04/11 04:46:06;;;;;;;;;1.00;1.00;;;;;9.17;78.00;101089.31;5105530;27;45532;-67
2023/04/11 04:48:32;;;;;;;;;8.00;2.00;;;;;9.13;78.04;101080.56;5099683;27;46858;-67
2023/04/11 04:50:57;;;;;;;;;5.75;2.25;;;;;9.07;78.21;101073.63;5098713;27;45297;-67
2023/04/11 04:53:22;;;;;;;;;2.00;0.50;;;;;9.07;78.12;101073.63;5098939;27;45309;-67
2023/04/11 04:55:47;;;;;;;;;4.00;1.50;;;;;9.04;78.32;101068.41;5101036;27;46402;-67
2023/04/11 04:58:13;;;;;;;;;5.75;1.00;;;;;9.11;78.24;101078.88;5118981;27;45542;-66
2023/04/11 05:00:39;;;;;;;;;2.50;1.00;;;;;8.88;78.18;101043.22;5116538;27;45444;-67
2023/04/11 05:03:04;;;;;;;;;4.00;1.25;;;;;9.11;78.29;101086.75;5119166;27;45376;-67
2023/04/11 05:05:30;;;;;;;;;3.00;1.25;;;;;9.14;78.28;101089.34;5119361;27;45306;-66
2023/04/11 05:07:55;;;;;;;;;2.50;1.00;;;;;9.14;77.99;101086.72;5118950;27;46480;-64
2023/04/11 05:10:21;;;;;;;;;1.50;1.00;;;;;9.17;78.35;101095.41;5118884;27;45365;-65
2023/04/11 05:12:46;;;;;;;;;3.00;1.00;;;;;9.18;77.76;101105.06;5118958;27;45363;-65
2023/04/11 05:15:13;;;;;;;;;2.75;1.00;;;;;9.13;77.74;101095.47;5112137;27;45411;-64
2023/04/11 05:17:39;;;;;;;;;1.75;1.00;;;;;9.02;77.67;101072.84;5102613;27;46991;-65
2023/04/11 05:20:07;;;;;;;;;1.75;1.25;;;;;9.09;77.66;101092.03;5107233;27;45422;-65
2023/04/11 05:22:33;;;;;;;;;4.00;1.50;;;;;9.22;77.68;101109.38;5101972;27;45493;-65
2023/04/11 05:24:58;;;;;;;;;3.00;2.25;;;;;9.25;77.57;101116.38;5118844;27;45482;-65
2023/04/11 05:27:24;;;;;;;;;3.00;1.00;;;;;9.27;77.35;101122.47;5118568;27;46451;-65
2023/04/11 05:29:50;;;;;;;;;5.00;2.00;;;;;9.19;77.39;101108.53;5118351;27;45436;-65
2023/04/11 05:32:15;;;;;;;;;4.00;2.00;;;;;9.25;77.54;101113.75;5110361;27;45949;-65
2023/04/11 05:34:52;;;;;;;;;3.75;1.00;;;;;9.36;77.13;101130.22;5098104;27;45324;-65
2023/04/11 05:37:18;;;;;;;;;3.00;1.00;;;;;9.40;76.87;101128.47;5108673;27;46508;-65
2023/04/11 05:39:43;;;;;;;;;4.50;2.50;;;;;9.38;77.05;101117.97;5115374;27;45440;-65
2023/04/11 05:42:09;;;;;;;;;3.50;2.00;;;;;9.44;77.07;101130.16;5106962;27;45324;-65
2023/04/11 05:44:34;;;;;;;;;6.25;2.00;;;;;9.50;76.84;101139.75;5098011;27;45496;-64
2023/04/11 05:46:59;;;;;;;;;5.00;1.00;;;;;9.50;76.86;101137.13;5112337;27;46487;-64
2023/04/11 05:49:25;;;;;;;;;3.00;3.00;;;;;9.32;76.82;101104.00;5118815;27;45317;-65
2023/04/11 05:51:50;;;;;;;;;7.75;2.25;;;;;9.59;76.59;101153.63;5119892;27;45230;-64
2023/04/11 05:54:30;;;;;;;;;3.00;2.00;;;;;9.64;76.59;101156.19;5120524;27;45461;-64
2023/04/11 05:56:56;;;;;;;;;5.25;3.00;;;;;9.69;76.39;101164.03;5112325;27;46516;-64
2023/04/11 05:59:22;;;;;;;;;3.00;1.00;;;;;9.72;76.46;101161.38;5101285;27;45437;-64
2023/04/11 06:01:49;;;;;;;;;4.50;2.00;;;;;9.75;76.05;101164.81;5101485;27;45317;-64
2023/04/11 06:04:14;;;;;;;;;4.00;2.25;;;;;9.82;76.30;101172.66;5101612;27;45249;-65
2023/04/11 06:06:40;;;;;;;;;3.75;1.25;;;;;9.76;76.30;101161.31;5101111;27;46525;-65
2023/04/11 06:09:07;;;;;;;;;8.25;3.00;;;;;9.85;76.14;101167.34;5101230;27;45241;-64
2023/04/11 06:11:33;;;;;;;;;10.00;2.75;;;;;9.94;75.98;101169.84;5101200;27;45475;-65
2023/04/11 06:13:58;;;;;;;;;2.00;2.00;;;;;10.12;75.71;101187.13;5101606;27;45327;-64
2023/04/11 06:16:24;;;;;;;;;4.25;4.00;;;;;10.18;75.53;101186.19;5099722;27;46296;-64
2023/04/11 06:18:49;;;;;;;;;5.00;0.75;;;;;10.15;75.49;101176.59;5101015;27;45439;-64
2023/04/11 06:21:15;;;;;;;;;4.75;1.00;;;;;10.33;74.61;101180.72;5101273;27;45386;-65
2023/04/11 06:23:40;;;;;;;;;5.50;2.50;;;;;10.50;74.46;101192.78;5101268;27;45440;-64
2023/04/11 06:26:06;;;;;;;;;7.25;3.00;;;;;10.49;74.26;101189.28;5100944;27;47164;-64
2023/04/11 06:28:31;;;;;;;;;3.25;2.00;;;;;10.54;74.01;101187.47;5100815;27;45477;-64
2023/04/11 06:30:56;;;;;;;;;3.00;3.00;;;;;10.72;73.67;101203.84;5101245;27;45266;-64
2023/04/11 06:33:22;;;;;;;;;7.75;4.75;;;;;10.83;73.13;101199.25;5101004;27;45543;-64
2023/04/11 06:35:47;;;;;;;;;4.75;0.75;;;;;10.81;72.79;101201.06;5100749;27;45564;-64
2023/04/11 06:38:12;;;;;;;;;7.00;5.75;;;;;10.80;73.01;101187.03;5101120;27;45410;-65
2023/04/11 06:40:37;;;;;;;;;3.50;2.50;;;;;10.93;72.69;101203.47;5100598;27;45467;-64
2023/04/11 06:43:03;;;;;;;;;6.75;1.75;;;;;10.94;72.50;101207.88;5101036;27;45437;-64
2023/04/11 06:45:28;;;;;;;;;3.25;2.00;;;;;10.93;72.48;101192.94;5100612;27;46223;-64
2023/04/11 06:47:54;;;;;;;;;5.00;2.00;;;;;11.03;72.27;101209.47;5100504;27;45363;-64
2023/04/11 06:50:19;;;;;;;;;5.00;5.00;;;;;11.03;72.26;101209.47;5100724;27;45212;-64
2023/04/11 06:52:44;;;;;;;;;5.25;1.50;;;;;11.04;72.30;101191.91;5100836;27;45542;-64
2023/04/11 06:55:13;;;;;;;;;5.75;2.75;;;;;11.27;71.26;101202.00;5099701;27;47220;-64
2023/04/11 06:57:38;;;;;;;;;1.75;1.00;;;;;11.37;71.16;101218.53;5100384;27;45454;-64
2023/04/11 07:00:05;;;;;;;;;6.25;2.75;;;;;11.81;70.90;101208.91;5100438;27;45444;-64
2023/04/11 07:02:34;;;;;;;;;1.00;1.00;;;;;12.27;68.64;101215.00;5099620;27;45314;-65
2023/04/11 07:05:00;;;;;;;;;3.75;3.75;;;;;13.04;66.52;101218.44;5099011;27;46742;-64
2023/04/11 07:07:25;;;;;;;;;3.00;2.00;;;;;13.88;64.34;101212.69;5100202;27;45427;-64
2023/04/11 07:09:51;;;;;;;;;5.25;1.25;;;;;15.72;60.63;101214.66;5100216;27;45411;-64
2023/04/11 07:12:16;;;;;;;;;6.50;1.00;;;;;16.36;55.41;101215.81;5100204;27;45414;-64
2023/04/11 07:14:41;;;;;;;;;3.00;2.00;;;;;15.92;56.38;101221.91;5100307;27;45478;-65
2023/04/11 07:17:07;;;;;;;;;5.50;2.75;;;;;15.53;56.79;101209.16;5099682;27;45450;-64
2023/04/11 07:19:32;;;;;;;;;5.00;1.25;;;;;15.76;55.58;101220.72;5100492;27;45408;-64
2023/04/11 07:21:57;;;;;;;;;7.50;1.00;;;;;15.68;56.89;101213.03;5100205;27;45426;-64
2023/04/11 07:24:22;;;;;;;;;8.00;3.00;;;;;15.79;56.42;101215.34;5099784;27;46066;-64
2023/04/11 07:26:50;;;;;;;;;3.25;1.00;;;;;15.87;55.95;101226.53;5100161;27;45472;-65
2023/04/11 07:29:16;;;;;;;;;12.67;11.67;;;;;16.51;55.05;101235.59;5102283;27;45390;-64
2023/04/11 07:31:43;;;;;;;;;3.50;2.00;;;;;16.34;53.05;101223.00;5120633;27;45215;-65
2023/04/11 07:34:09;;;;;;;;;4.00;2.00;;;;;16.68;53.33;101216.31;5120123;27;46998;-65
2023/04/11 07:36:35;;;;;;;;;5.50;2.00;;;;;18.42;51.53;101219.31;5120187;27;45228;-65
2023/04/11 07:39:00;;;;;;;;;1.25;1.25;;;;;18.14;48.58;101211.78;5120480;27;45442;-65
2023/04/11 07:41:26;;;;;;;;;1.00;1.00;;;;;17.42;49.78;101223.03;5120684;27;45196;-65
2023/04/11 07:43:51;;;;;;;;;3.50;2.00;;;;;16.67;51.64;101220.78;5120159;27;45583;-65
2023/04/11 07:46:16;;;;;;;;;1.25;1.25;;;;;16.21;51.24;101196.03;5120392;27;45306;-65
2023/04/11 07:48:42;;;;;;;;;1.25;1.00;;;;;15.92;52.42;101203.31;5120150;27;45625;-65
2023/04/11 07:51:07;;;;;;;;;3.50;0.75;;;;;15.58;54.47;101219.59;5120697;27;45388;-65
2023/04/11 07:53:33;;;;;;;;;0.75;0.75;;;;;15.24;54.50;101221.66;5120256;27;45379;-65
2023/04/11 07:55:59;;;;;;;;;4.00;1.50;;;;;14.70;54.97;101169.59;5124125;27;45384;-65
2023/04/11 07:58:24;;;;;;;;;2.50;0.75;;;;;14.67;55.47;101201.47;5140867;27;45403;-65
2023/04/11 08:00:51;;;;;;;;;0.50;0.50;;;;;14.66;56.19;101232.44;5140650;27;45400;-64
2023/04/11 08:03:17;;;;;;;;;0.50;0.00;;;;;14.51;55.75;101225.81;5140480;27;46370;-64
2023/04/11 08:05:42;;;;;;;;;2.50;1.75;;;;;14.34;55.61;101221.03;5140048;27;45878;-65
2023/04/11 08:08:08;;;;;;;;;5.00;2.00;;;;;14.43;55.52;101230.47;5140823;27;45152;-65
2023/04/11 08:10:33;;;;;;;;;5.75;2.25;;;;;15.04;55.03;101221.47;5140787;27;45203;-64
2023/04/11 08:12:59;;;;;;;;;2.25;1.25;;;;;15.98;52.04;101234.97;5139217;27;46144;-64
2023/04/11 08:15:25;;;;;;;;;4.00;2.00;;;;;16.22;51.45;101237.63;5140676;27;45383;-65
2023/04/11 08:17:54;;;;;;;;;1.00;0.75;;;;;16.77;50.71;101247.84;5140216;27;45335;-65
2023/04/11 08:20:21;;;;;;;;;4.75;1.75;;;;;16.90;49.44;101245.59;5140642;27;45470;-65
2023/04/11 08:22:47;;;;;;;;;1.75;0.00;;;;;17.26;47.87;101246.78;5140417;27;46383;-65
2023/04/11 08:25:13;;;;;;;;;2.00;2.00;;;;;17.37;48.75;101253.38;5140139;27;45537;-65
2023/04/11 08:27:39;;;;;;;;;3.25;1.25;;;;;17.71;48.28;101254.53;5140417;27;45210;-64
2023/04/11 08:30:07;;;;;;;;;0.25;0.25;;;;;18.37;46.47;101253.34;5140567;27;45227;-65
2023/04/11 08:32:33;;;;;;;;;1.00;0.00;;;;;18.85;48.18;101250.16;5139926;27;47356;-65
2023/04/11 08:34:58;;;;;;;;;1.25;1.25;;;;;18.47;46.06;101244.91;5139816;27;45375;-65
2023/04/11 08:37:23;;;;;;;;;0.75;0.00;;;;;18.23;46.83;101262.00;5140171;27;45347;-65
2023/04/11 08:39:49;;;;;;;;;1.25;1.00;;;;;17.94;45.53;101252.69;5140676;27;45551;-65
2023/04/11 08:42:25;;;;;;;;;2.00;1.00;;;;;18.02;47.40;101220.34;5139774;27;45430;-65
2023/04/11 08:44:59;;;;;;;;;1.00;1.00;;;;;18.09;46.26;101259.97;5139878;27;46079;-65
2023/04/11 08:47:25;;;;;;;;;2.25;2.25;;;;;17.75;45.69;101249.94;5140124;27;45343;-65
2023/04/11 08:49:51;;;;;;;;;3.50;2.00;;;;;17.44;45.20;101259.31;5140148;27;45368;-65
2023/04/11 08:52:18;;;;;;;;;1.25;1.25;;;;;17.49;46.57;101243.13;5139722;27;45380;-65
2023/04/11 08:54:44;;;;;;;;;2.25;1.00;;;;;19.21;44.38;101217.25;5139512;27;45340;-65
2023/04/11 08:57:13;;;;;;;;;3.50;1.25;;;;;19.77;42.99;101234.78;5139974;27;45213;-65
2023/04/11 08:59:48;;;;;;;;;3.00;1.00;;;;;20.28;42.00;101247.25;5140002;27;45501;-65
2023/04/11 09:02:13;;;;;;;;;3.00;1.25;;;;;19.78;40.33;101236.56;5139721;27;46515;-65
2023/04/11 09:04:42;;;;;;;;;0.75;0.25;;;;;20.25;41.76;101247.41;5139733;27;45367;-65
2023/04/11 09:07:08;;;;;;;;;2.00;1.00;;;;;21.05;40.02;101242.88;5139445;27;45373;-65
2023/04/11 09:09:35;;;;;;;;;4.25;2.00;;;;;21.83;39.89;101228.41;5140153;27;45276;-65
2023/04/11 09:12:01;;;;;;;;;1.25;1.00;;;;;21.76;40.55;101233.28;5139295;27;45571;-65
2023/04/11 09:14:27;;;;;;;;;4.00;1.00;;;;;21.15;41.39;101235.16;5139412;27;45817;-65
2023/04/11 09:17:04;;;;;;;;;2.75;1.00;;;;;21.08;39.70;101233.81;5139659;27;45397;-65
2023/04/11 09:19:32;;;;;;;;;4.00;1.00;;;;;20.72;38.97;101224.28;5139622;27;45362;-65
2023/04/11 09:22:00;;;;;;;;;2.00;0.25;;;;;20.55;40.08;101214.50;5139379;27;46519;-65
2023/04/11 09:24:27;;;;;;;;;2.00;1.00;;;;;20.34;39.09;101218.31;5139126;27;45329;-64
2023/04/11 09:27:25;;;;;;;;;3.50;0.00;;;;;20.08;41.34;101232.28;5139267;27;45453;-64
2023/04/11 09:29:50;;;;;;;;;4.00;1.00;;;;;19.73;39.58;101230.53;5096013;27;45361;-63
2023/04/11 09:32:27;;;;;;;;;2.50;1.00;;;;;19.54;39.48;101235.16;5095727;27;46551;-63
2023/04/11 09:35:15;;;;;;;;;3.00;0.25;;;;;19.20;41.38;101234.22;5094803;27;45431;-64
2023/04/11 09:37:47;;;;;;;;;1.00;0.00;;;;;19.12;41.71;101235.47;5095656;27;45287;-64
2023/04/11 09:40:15;;;;;;;;;2.25;0.00;;;;;19.05;41.40;101234.06;5095818;27;45637;-64
2023/04/11 09:42:41;;;;;;;;;3.00;1.00;;;;;19.01;40.98;101240.50;5095453;27;45688;-63
2023/04/11 09:45:28;;;;;;;;;6.00;2.00;;;;;18.84;40.83;101235.97;5095813;27;45486;-64
2023/04/11 09:47:57;;;;;;;;;0.25;0.25;;;;;18.78;39.79;101233.63;5095491;27;45427;-63
2023/04/11 09:50:23;;;;;;;;;1.50;1.50;;;;;18.83;40.15;101238.72;5095420;27;45552;-64
2023/04/11 09:52:51;;;;;;;;;3.00;1.00;;;;;20.87;39.47;101226.09;5095017;27;46043;-64
2023/04/11 09:55:19;;;;;;;;;2.00;0.00;;;;;22.38;39.04;101224.91;5095550;27;45450;-63
2023/04/11 09:57:47;;;;;;;;;1.00;0.00;;;;;23.26;35.34;101224.44;5095736;27;45667;-63
2023/04/11 10:00:33;;;;;;;;;2.00;1.00;;;;;24.31;36.45;101232.34;5095983;27;45284;-64
2023/04/11 10:02:59;;;;;;;;;2.25;0.00;;;;;26.22;32.20;101233.06;5094666;27;46871;-64
2023/04/11 10:05:26;;;;;;;;;0.00;0.00;;;;;27.70;30.37;101226.03;5116560;27;45422;-64
2023/04/11 10:08:01;;;;;;;;;1.50;0.00;;;;;28.92;29.54;101222.38;5138948;27;45393;-64
2023/04/11 10:10:26;;;;;;;;;4.00;2.00;;;;;29.51;27.30;101228.56;5139075;27;45330;-64
2023/04/11 10:12:52;;;;;;;;;1.67;0.00;;;;;30.24;25.43;101225.16;5138594;27;47036;-64
2023/04/11 10:15:17;;;;;;;;;1.67;0.00;;;;;31.01;24.40;101212.03;5138594;27;45338;-64
2023/04/11 10:18:10;;;;;;;;;2.50;0.75;;;;;31.36;26.07;101212.09;5138968;27;45301;-64
2023/04/11 10:20:50;;;;;;;;;2.00;0.00;;;;;30.49;24.39;101201.00;5137189;27;45481;-64
2023/04/11 10:23:15;;;;;;;;;0.00;0.00;;;;;29.61;25.13;101215.84;5138861;27;45687;-64
2023/04/11 10:25:51;;;;;;;;;0.00;0.00;;;;;29.56;25.60;101220.00;5137819;27;45350;-64
2023/04/11 10:28:38;;;;;;;;;3.67;0.00;;;;;29.99;25.08;101199.53;5138815;27;45481;-64
2023/04/11 10:31:05;;;;;;;;;0.00;0.00;;;;;30.28;23.83;101209.38;5138856;27;45356;-64
2023/04/11 10:33:32;;;;;;;;;1.33;0.00;;;;;30.55;24.61;101205.81;5138444;27;47457;-64
2023/04/11 10:36:02;;;;;;;;;1.00;0.00;;;;;30.68;23.31;101210.84;5138252;27;45343;-62
2023/04/11 10:38:42;;;;;;;;;1.00;0.00;;;;;30.43;23.75;101212.47;5142174;27;45320;-62
2023/04/11 10:41:32;;;;;;;;;5.00;0.00;;;;;29.30;23.95;101216.06;5142207;27;45384;-62
2023/04/11 10:44:13;;;;;;;;;4.67;0.67;;;;;28.63;25.11;101212.38;5141995;27;45524;-62
2023/04/11 10:46:53;;;;;;;;;2.67;1.00;;;;;28.01;24.48;101208.94;5141110;27;45401;-62
2023/04/11 10:49:38;;;;;;;;;0.00;0.00;;;;;26.96;25.44;101210.75;5142028;27;45311;-62
2023/04/11 10:52:23;;;;;;;;;5.33;0.00;;;;;25.78;26.69;101210.47;5123530;27;45579;-62
2023/04/11 10:54:50;;;;;;;;;2.00;0.00;;;;;24.82;27.47;101193.63;5141625;27;46422;-63
2023/04/11 10:57:16;;;;;;;;;1.67;0.00;;;;;23.86;27.93;101205.09;5141844;27;45422;-63
2023/04/11 10:59:41;;;;;;;;;0.25;0.25;;;;;23.14;29.16;101208.31;5142087;27;45494;-63
2023/04/11 11:02:08;;;;;;;;;1.75;0.00;;;;;22.69;29.86;101200.56;5141992;27;45444;-65
2023/04/11 11:04:37;;;;;;;;;1.00;0.00;;;;;22.50;29.94;101199.09;5141679;27;45535;-65
2023/04/11 11:07:06;;;;;;;;;2.33;0.67;;;;;21.96;30.48;101191.81;5141614;27;45294;-65
2023/04/11 11:09:32;;;;;;;;;1.75;0.00;;;;;21.78;31.65;101195.66;5141707;27;45327;-64
2023/04/11 11:12:05;;;;;;;;;0.50;0.50;;;;;21.53;31.90;101202.53;5142039;27;45484;-65
2023/04/11 11:14:30;;;;;;;;;2.50;0.00;;;;;21.21;32.43;101198.16;5141329;27;47281;-65
2023/04/11 11:16:56;;;;;;;;;2.25;0.00;;;;;20.85;32.62;101194.06;5141514;27;45235;-64
2023/04/11 11:19:21;;;;;;;;;0.75;0.00;;;;;20.53;32.95;101186.06;5141833;27;45368;-65
2023/04/11 11:21:47;;;;;;;;;0.00;0.00;;;;;20.29;33.18;101184.78;5141664;27;45245;-64
2023/04/11 11:24:12;;;;;;;;;0.00;0.00;;;;;20.08;33.52;101190.38;5141613;27;46559;-65
2023/04/11 11:26:43;;;;;;;;;2.00;1.00;;;;;19.90;33.92;101181.56;5141359;27;45350;-65
2023/04/11 11:29:09;;;;;;;;;1.00;0.00;;;;;19.63;34.32;101178.56;5141370;27;45304;-64